»·PEaware :: MRR49 KLAS-KPHX

MRR49 :: KLAS-KPHX

FLIGHT INFORMATION

Flight Status: Arrived
Operator:
San Juan Airlines
More flights by this operator :: More flights under this callsign
Pilot: Brenden M. (4822)
Aircraft: MCDONNELL-DOUGLAS DC-6/B LIFTMASTER
(DC6)
More flights by this aircraft type
Origin: KLAS McCarran Intl
United States
Destination: KPHX Phoenix Sky Harbor Intl
United States
More flights between these airports :: More routes between these airports
Route: PRFUM3 DRK COYOT3
File this flight plan on PilotEdge
Remarks:
Altitude:
(Current/Filed)
11,000ft
Speed:
(Current/Filed)
230kts
Departed: 21-Jan-17 09:08 PM
Arrived: 21-Jan-17 10:17 PM
Distance/Time
Traveled:
222nm/1:09
Distance/Time
To Go:
Arrived

Flight Plot

Page will automatically refresh every two minutes.


Map Options




Map Legend


Flown Route
Filed Route
Departure Airport
Arrival Airport
Navaid (VOR, NDB)
Fix

Horizontal Profiles

Position Reports

Time Latitude Longitude Heading Altitude Ground
Speed
21-Jan-17 20:58 36.083264 -115.130256 180 2150ft 0kts
21-Jan-17 20:59 36.083261 -115.130256 179 2150ft 0kts
21-Jan-17 21:00 36.083261 -115.130256 179 2150ft 0kts
21-Jan-17 21:01 36.083248 -115.130256 179 2150ft 0kts
21-Jan-17 21:02 36.081078 -115.130105 175 2150ft 16kts
21-Jan-17 21:03 36.078253 -115.129216 88 2150ft 11kts
21-Jan-17 21:04 36.078262 -115.124659 89 2150ft 14kts
21-Jan-17 21:05 36.077583 -115.121701 131 2150ft 0kts
21-Jan-17 21:06 36.076390 -115.122400 271 2150ft 0kts
21-Jan-17 21:07 36.076390 -115.122400 271 2150ft 0kts
21-Jan-17 21:08 36.076389 -115.124128 269 2150ft 51kts
21-Jan-17 21:09 36.076239 -115.164472 269 2699ft 156kts
21-Jan-17 21:10 36.076708 -115.215884 288 4031ft 142kts
21-Jan-17 21:11 36.061276 -115.253571 209 4705ft 159kts
21-Jan-17 21:12 36.023572 -115.275786 203 5984ft 150kts
21-Jan-17 21:13 35.985073 -115.295079 204 6997ft 158kts
21-Jan-17 21:14 35.934276 -115.287177 166 7250ft 207kts
21-Jan-17 21:15 35.879970 -115.267017 166 8220ft 204kts
21-Jan-17 21:16 35.853794 -115.206140 108 9123ft 210kts
21-Jan-17 21:17 35.836790 -115.137733 108 10096ft 208kts
21-Jan-17 21:18 35.822432 -115.069281 84 10974ft 208kts
21-Jan-17 21:19 35.827602 -114.992536 84 11007ft 236kts
21-Jan-17 21:20 35.833442 -114.910043 84 11008ft 248kts
21-Jan-17 21:21 35.839918 -114.826004 84 11005ft 253kts
21-Jan-17 21:22 35.846403 -114.739491 84 11005ft 256kts
21-Jan-17 21:23 35.852755 -114.652298 84 11005ft 257kts
21-Jan-17 21:24 35.839277 -114.569486 123 11007ft 256kts
21-Jan-17 21:25 35.801254 -114.495469 124 11005ft 257kts
21-Jan-17 21:26 35.762376 -114.421529 124 10968ft 258kts
21-Jan-17 21:27 35.723289 -114.347856 124 10965ft 258kts
21-Jan-17 21:28 35.683881 -114.273870 124 10962ft 259kts
21-Jan-17 21:29 35.644471 -114.200094 124 10960ft 259kts
21-Jan-17 21:30 35.604912 -114.126219 124 10960ft 259kts
21-Jan-17 21:31 35.565299 -114.052211 124 10961ft 259kts
21-Jan-17 21:32 35.525555 -113.978510 124 10961ft 259kts
21-Jan-17 21:33 35.485864 -113.904975 124 10961ft 260kts
21-Jan-17 21:34 35.446901 -113.832001 124 10958ft 259kts
21-Jan-17 21:35 35.407586 -113.759028 124 10958ft 259kts
21-Jan-17 21:36 35.367736 -113.685476 124 10958ft 259kts
21-Jan-17 21:37 35.328063 -113.612484 124 10959ft 259kts
21-Jan-17 21:38 35.288135 -113.539200 124 10959ft 259kts
21-Jan-17 21:39 35.248253 -113.466161 124 10959ft 259kts
21-Jan-17 21:40 35.208386 -113.393303 124 10959ft 259kts
21-Jan-17 21:41 35.168304 -113.320203 124 10959ft 259kts
21-Jan-17 21:42 35.128209 -113.247233 124 10961ft 259kts
21-Jan-17 21:43 35.088146 -113.174472 124 10964ft 259kts
21-Jan-17 21:44 35.048162 -113.102003 124 10967ft 259kts
21-Jan-17 21:45 35.007966 -113.029292 125 10969ft 260kts
21-Jan-17 21:46 34.967735 -112.956676 125 10970ft 263kts
21-Jan-17 21:47 34.927494 -112.884032 124 10968ft 266kts
21-Jan-17 21:48 34.886366 -112.809250 124 10968ft 267kts
21-Jan-17 21:49 34.845353 -112.735427 125 10968ft 266kts
21-Jan-17 21:50 34.803980 -112.661288 125 10968ft 266kts
21-Jan-17 21:51 34.762514 -112.587194 125 10968ft 266kts
21-Jan-17 21:52 34.721181 -112.513508 125 10969ft 267kts
21-Jan-17 21:53 34.670882 -112.450293 142 10969ft 265kts
21-Jan-17 21:54 34.613991 -112.394039 142 10970ft 265kts
21-Jan-17 21:55 34.557080 -112.338302 143 10970ft 265kts
21-Jan-17 21:56 34.499889 -112.282532 143 10970ft 265kts
21-Jan-17 21:57 34.442640 -112.230733 166 10991ft 258kts
21-Jan-17 21:58 34.373644 -112.212054 170 11005ft 256kts
21-Jan-17 21:59 34.304517 -112.193886 171 11005ft 256kts
21-Jan-17 22:00 34.235143 -112.175869 171 11006ft 256kts
21-Jan-17 22:01 34.166576 -112.158107 170 11006ft 257kts
21-Jan-17 22:02 34.099038 -112.140682 170 11006ft 258kts
21-Jan-17 22:03 34.028407 -112.122505 170 10915ft 261kts
21-Jan-17 22:04 33.957370 -112.107755 173 10914ft 259kts
21-Jan-17 22:05 33.886659 -112.092605 154 10891ft 263kts
21-Jan-17 22:06 33.829844 -112.044853 146 10662ft 242kts
21-Jan-17 22:07 33.767212 -112.018967 159 9815ft 253kts
21-Jan-17 22:08 33.701826 -111.989610 160 9036ft 256kts
21-Jan-17 22:09 33.637061 -111.960049 159 8207ft 251kts
21-Jan-17 22:10 33.576636 -111.929630 149 7584ft 242kts
21-Jan-17 22:11 33.524638 -111.890649 151 7117ft 224kts
21-Jan-17 22:12 33.477629 -111.857316 160 6418ft 183kts
21-Jan-17 22:13 33.434889 -111.856052 217 4799ft 162kts
21-Jan-17 22:14 33.430741 -111.904932 268 3069ft 164kts
21-Jan-17 22:15 33.431071 -111.949135 268 1980ft 140kts
21-Jan-17 22:16 33.431039 -111.980944 268 1393ft 111kts
21-Jan-17 22:17 33.431032 -112.004755 270 1143ft 24kts
21-Jan-17 22:18 33.430056 -112.006399 217 1143ft 1kts
21-Jan-17 22:19 33.429108 -112.010804 176 1143ft 16kts
21-Jan-17 22:20 33.427749 -112.011905 270 1143ft 5kts
21-Jan-17 22:21 33.427741 -112.016258 270 1143ft 17kts
21-Jan-17 22:22 33.424999 -112.017403 182 1143ft 11kts
21-Jan-17 22:23 33.423507 -112.016420 181 1143ft 0kts
21-Jan-17 22:24 33.423507 -112.016420 181 1143ft 0kts

Navigation Log

Ident Type
Flight plan parsing failed, navigation log unavailable